sensor_id;sensor_type;location;lat;lon;timestamp;P1;durP1;ratioP1;P2;durP2;ratioP2
1545;SDS011;766;51.502;9.752;2022-12-04T00:01:11;37.80;;;17.97;;
1545;SDS011;766;51.502;9.752;2022-12-04T00:03:50;47.70;;;18.33;;
1545;SDS011;766;51.502;9.752;2022-12-04T00:06:21;40.90;;;17.90;;
1545;SDS011;766;51.502;9.752;2022-12-04T00:09:00;47.93;;;19.10;;
1545;SDS011;766;51.502;9.752;2022-12-04T00:11:40;41.13;;;17.90;;
1545;SDS011;766;51.502;9.752;2022-12-04T00:14:16;47.57;;;20.07;;
1545;SDS011;766;51.502;9.752;2022-12-04T00:16:52;44.67;;;17.93;;
1545;SDS011;766;51.502;9.752;2022-12-04T00:19:25;42.10;;;17.93;;
1545;SDS011;766;51.502;9.752;2022-12-04T00:22:07;45.67;;;17.60;;
1545;SDS011;766;51.502;9.752;2022-12-04T00:24:47;40.97;;;18.47;;
1545;SDS011;766;51.502;9.752;2022-12-04T00:27:20;46.47;;;19.47;;
1545;SDS011;766;51.502;9.752;2022-12-04T00:29:53;45.93;;;19.63;;
1545;SDS011;766;51.502;9.752;2022-12-04T00:32:29;45.30;;;19.27;;
1545;SDS011;766;51.502;9.752;2022-12-04T00:35:04;48.67;;;17.77;;
1545;SDS011;766;51.502;9.752;2022-12-04T00:37:39;48.17;;;19.03;;
1545;SDS011;766;51.502;9.752;2022-12-04T00:40:15;40.90;;;17.03;;
1545;SDS011;766;51.502;9.752;2022-12-04T00:42:51;43.90;;;18.03;;
1545;SDS011;766;51.502;9.752;2022-12-04T00:45:21;39.37;;;17.17;;
1545;SDS011;766;51.502;9.752;2022-12-04T00:47:52;45.40;;;18.07;;
1545;SDS011;766;51.502;9.752;2022-12-04T00:50:21;44.87;;;18.83;;
1545;SDS011;766;51.502;9.752;2022-12-04T00:53:01;45.17;;;18.47;;
1545;SDS011;766;51.502;9.752;2022-12-04T00:55:38;44.70;;;17.87;;
1545;SDS011;766;51.502;9.752;2022-12-04T00:58:19;47.37;;;18.57;;
1545;SDS011;766;51.502;9.752;2022-12-04T01:01:09;45.23;;;18.63;;
1545;SDS011;766;51.502;9.752;2022-12-04T01:03:42;50.17;;;19.70;;
1545;SDS011;766;51.502;9.752;2022-12-04T01:06:17;53.10;;;20.63;;
1545;SDS011;766;51.502;9.752;2022-12-04T01:08:55;47.00;;;19.50;;
1545;SDS011;766;51.502;9.752;2022-12-04T01:11:34;51.13;;;20.43;;
1545;SDS011;766;51.502;9.752;2022-12-04T01:14:11;55.63;;;19.10;;
1545;SDS011;766;51.502;9.752;2022-12-04T01:16:50;53.27;;;20.13;;
1545;SDS011;766;51.502;9.752;2022-12-04T01:19:25;47.10;;;18.87;;
1545;SDS011;766;51.502;9.752;2022-12-04T01:21:55;54.67;;;19.27;;
1545;SDS011;766;51.502;9.752;2022-12-04T01:24:36;46.70;;;19.40;;
1545;SDS011;766;51.502;9.752;2022-12-04T01:27:14;51.37;;;17.70;;
1545;SDS011;766;51.502;9.752;2022-12-04T01:29:43;45.83;;;17.80;;
1545;SDS011;766;51.502;9.752;2022-12-04T01:32:11;49.47;;;18.57;;
1545;SDS011;766;51.502;9.752;2022-12-04T01:34:40;45.90;;;19.17;;
1545;SDS011;766;51.502;9.752;2022-12-04T01:37:12;38.63;;;17.27;;
1545;SDS011;766;51.502;9.752;2022-12-04T01:39:45;43.47;;;16.83;;
1545;SDS011;766;51.502;9.752;2022-12-04T01:42:16;45.53;;;18.20;;
1545;SDS011;766;51.502;9.752;2022-12-04T01:48:04;42.73;;;17.00;;
1545;SDS011;766;51.502;9.752;2022-12-04T01:50:41;46.50;;;18.40;;
1545;SDS011;766;51.502;9.752;2022-12-04T01:53:18;43.63;;;18.70;;
1545;SDS011;766;51.502;9.752;2022-12-04T01:55:49;42.67;;;17.70;;
1545;SDS011;766;51.502;9.752;2022-12-04T01:58:21;43.23;;;17.83;;
1545;SDS011;766;51.502;9.752;2022-12-04T02:00:59;45.70;;;16.93;;
1545;SDS011;766;51.502;9.752;2022-12-04T02:03:34;39.03;;;15.83;;
1545;SDS011;766;51.502;9.752;2022-12-04T02:06:04;45.27;;;17.27;;
1545;SDS011;766;51.502;9.752;2022-12-04T02:08:33;39.33;;;15.23;;
1545;SDS011;766;51.502;9.752;2022-12-04T02:11:06;45.03;;;16.77;;
1545;SDS011;766;51.502;9.752;2022-12-04T02:13:48;36.50;;;14.87;;
1545;SDS011;766;51.502;9.752;2022-12-04T02:16:23;37.90;;;16.03;;
1545;SDS011;766;51.502;9.752;2022-12-04T02:19:00;42.00;;;16.73;;
1545;SDS011;766;51.502;9.752;2022-12-04T02:21:42;43.40;;;16.13;;
1545;SDS011;766;51.502;9.752;2022-12-04T02:27:18;38.73;;;16.70;;
1545;SDS011;766;51.502;9.752;2022-12-04T02:30:00;39.53;;;16.03;;
1545;SDS011;766;51.502;9.752;2022-12-04T02:32:32;42.40;;;16.80;;
1545;SDS011;766;51.502;9.752;2022-12-04T02:35:08;42.47;;;16.53;;
1545;SDS011;766;51.502;9.752;2022-12-04T02:37:45;42.33;;;15.27;;
1545;SDS011;766;51.502;9.752;2022-12-04T02:40:23;41.90;;;15.70;;
1545;SDS011;766;51.502;9.752;2022-12-04T02:42:56;39.27;;;14.73;;
1545;SDS011;766;51.502;9.752;2022-12-04T02:45:30;43.97;;;17.63;;
1545;SDS011;766;51.502;9.752;2022-12-04T02:48:04;45.00;;;16.10;;
1545;SDS011;766;51.502;9.752;2022-12-04T02:50:35;43.63;;;15.93;;
1545;SDS011;766;51.502;9.752;2022-12-04T02:53:08;47.20;;;16.57;;
1545;SDS011;766;51.502;9.752;2022-12-04T02:55:39;40.00;;;16.00;;
1545;SDS011;766;51.502;9.752;2022-12-04T02:58:12;40.07;;;16.23;;
1545;SDS011;766;51.502;9.752;2022-12-04T03:00:44;37.23;;;15.63;;
1545;SDS011;766;51.502;9.752;2022-12-04T03:03:16;45.07;;;16.53;;
1545;SDS011;766;51.502;9.752;2022-12-04T03:05:49;50.43;;;18.43;;
1545;SDS011;766;51.502;9.752;2022-12-04T03:08:23;42.37;;;17.40;;
1545;SDS011;766;51.502;9.752;2022-12-04T03:10:56;44.77;;;17.33;;
1545;SDS011;766;51.502;9.752;2022-12-04T03:13:28;38.90;;;16.57;;
1545;SDS011;766;51.502;9.752;2022-12-04T03:16:05;44.23;;;16.17;;
1545;SDS011;766;51.502;9.752;2022-12-04T03:18:39;45.23;;;17.33;;
1545;SDS011;766;51.502;9.752;2022-12-04T03:21:17;43.23;;;18.87;;
1545;SDS011;766;51.502;9.752;2022-12-04T03:23:49;39.00;;;16.43;;
1545;SDS011;766;51.502;9.752;2022-12-04T03:26:24;43.93;;;14.77;;
1545;SDS011;766;51.502;9.752;2022-12-04T03:28:57;44.90;;;15.80;;
1545;SDS011;766;51.502;9.752;2022-12-04T03:31:38;39.27;;;14.83;;
1545;SDS011;766;51.502;9.752;2022-12-04T03:34:10;39.33;;;15.70;;
1545;SDS011;766;51.502;9.752;2022-12-04T03:36:44;45.47;;;16.57;;
1545;SDS011;766;51.502;9.752;2022-12-04T03:39:16;43.03;;;16.07;;
1545;SDS011;766;51.502;9.752;2022-12-04T03:41:52;40.03;;;15.87;;
1545;SDS011;766;51.502;9.752;2022-12-04T03:44:24;39.70;;;15.07;;
1545;SDS011;766;51.502;9.752;2022-12-04T03:47:01;34.67;;;14.47;;
1545;SDS011;766;51.502;9.752;2022-12-04T03:49:37;38.53;;;15.50;;
1545;SDS011;766;51.502;9.752;2022-12-04T03:52:12;39.03;;;14.93;;
1545;SDS011;766;51.502;9.752;2022-12-04T03:54:45;35.53;;;15.13;;
1545;SDS011;766;51.502;9.752;2022-12-04T03:57:18;37.80;;;14.80;;
1545;SDS011;766;51.502;9.752;2022-12-04T03:59:51;38.43;;;15.97;;
1545;SDS011;766;51.502;9.752;2022-12-04T04:02:29;38.53;;;15.87;;
1545;SDS011;766;51.502;9.752;2022-12-04T04:05:03;42.23;;;16.10;;
1545;SDS011;766;51.502;9.752;2022-12-04T04:07:37;38.40;;;15.03;;
1545;SDS011;766;51.502;9.752;2022-12-04T04:10:11;34.70;;;15.67;;
1545;SDS011;766;51.502;9.752;2022-12-04T04:12:43;39.53;;;17.37;;
1545;SDS011;766;51.502;9.752;2022-12-04T04:15:40;39.27;;;15.73;;
1545;SDS011;766;51.502;9.752;2022-12-04T04:18:30;40.90;;;16.37;;
1545;SDS011;766;51.502;9.752;2022-12-04T04:21:17;42.53;;;15.83;;
1545;SDS011;766;51.502;9.752;2022-12-04T04:24:24;35.90;;;14.83;;
1545;SDS011;766;51.502;9.752;2022-12-04T04:26:57;40.73;;;15.60;;
1545;SDS011;766;51.502;9.752;2022-12-04T04:29:26;41.20;;;17.73;;
1545;SDS011;766;51.502;9.752;2022-12-04T04:31:56;46.00;;;17.57;;
1545;SDS011;766;51.502;9.752;2022-12-04T04:34:33;45.27;;;17.43;;
1545;SDS011;766;51.502;9.752;2022-12-04T04:37:14;47.23;;;17.60;;
1545;SDS011;766;51.502;9.752;2022-12-04T04:39:52;45.33;;;17.30;;
1545;SDS011;766;51.502;9.752;2022-12-04T04:42:27;38.33;;;16.17;;
1545;SDS011;766;51.502;9.752;2022-12-04T04:45:03;44.87;;;16.97;;
1545;SDS011;766;51.502;9.752;2022-12-04T04:47:36;42.97;;;16.63;;
1545;SDS011;766;51.502;9.752;2022-12-04T04:50:10;40.13;;;15.90;;
1545;SDS011;766;51.502;9.752;2022-12-04T04:52:41;40.57;;;16.10;;
1545;SDS011;766;51.502;9.752;2022-12-04T04:55:13;43.63;;;16.23;;
1545;SDS011;766;51.502;9.752;2022-12-04T04:57:43;42.70;;;17.27;;
1545;SDS011;766;51.502;9.752;2022-12-04T05:00:15;45.07;;;17.57;;
1545;SDS011;766;51.502;9.752;2022-12-04T05:02:45;43.97;;;17.30;;
1545;SDS011;766;51.502;9.752;2022-12-04T05:05:17;38.70;;;15.80;;
1545;SDS011;766;51.502;9.752;2022-12-04T05:07:45;35.50;;;16.33;;
1545;SDS011;766;51.502;9.752;2022-12-04T05:10:14;46.13;;;17.47;;
1545;SDS011;766;51.502;9.752;2022-12-04T05:12:44;41.73;;;16.70;;
1545;SDS011;766;51.502;9.752;2022-12-04T05:15:12;41.00;;;15.53;;
1545;SDS011;766;51.502;9.752;2022-12-04T05:17:41;47.63;;;17.60;;
1545;SDS011;766;51.502;9.752;2022-12-04T05:20:09;42.80;;;17.27;;
1545;SDS011;766;51.502;9.752;2022-12-04T05:22:39;41.23;;;17.83;;
1545;SDS011;766;51.502;9.752;2022-12-04T05:25:08;49.60;;;17.37;;
1545;SDS011;766;51.502;9.752;2022-12-04T05:27:40;41.57;;;17.23;;
1545;SDS011;766;51.502;9.752;2022-12-04T05:30:09;37.50;;;17.13;;
1545;SDS011;766;51.502;9.752;2022-12-04T05:32:38;40.87;;;17.63;;
1545;SDS011;766;51.502;9.752;2022-12-04T05:35:06;44.87;;;17.37;;
1545;SDS011;766;51.502;9.752;2022-12-04T05:37:37;48.97;;;18.07;;
1545;SDS011;766;51.502;9.752;2022-12-04T05:40:08;43.47;;;17.67;;
1545;SDS011;766;51.502;9.752;2022-12-04T05:42:37;41.10;;;17.73;;
1545;SDS011;766;51.502;9.752;2022-12-04T05:45:06;44.60;;;17.70;;
1545;SDS011;766;51.502;9.752;2022-12-04T05:47:36;47.03;;;18.23;;
1545;SDS011;766;51.502;9.752;2022-12-04T05:50:06;45.30;;;18.10;;
1545;SDS011;766;51.502;9.752;2022-12-04T05:52:37;42.77;;;18.10;;
1545;SDS011;766;51.502;9.752;2022-12-04T05:55:07;44.03;;;16.80;;
1545;SDS011;766;51.502;9.752;2022-12-04T05:57:36;42.00;;;17.67;;
1545;SDS011;766;51.502;9.752;2022-12-04T06:00:05;43.20;;;16.40;;
1545;SDS011;766;51.502;9.752;2022-12-04T06:02:34;40.23;;;17.37;;
1545;SDS011;766;51.502;9.752;2022-12-04T06:05:03;42.30;;;17.80;;
1545;SDS011;766;51.502;9.752;2022-12-04T06:07:33;47.40;;;18.30;;
1545;SDS011;766;51.502;9.752;2022-12-04T06:10:03;42.53;;;17.87;;
1545;SDS011;766;51.502;9.752;2022-12-04T06:12:33;45.70;;;17.43;;
1545;SDS011;766;51.502;9.752;2022-12-04T06:15:01;41.13;;;17.10;;
1545;SDS011;766;51.502;9.752;2022-12-04T06:17:30;43.63;;;17.50;;
1545;SDS011;766;51.502;9.752;2022-12-04T06:19:59;48.40;;;18.33;;
1545;SDS011;766;51.502;9.752;2022-12-04T06:22:35;47.73;;;19.03;;
1545;SDS011;766;51.502;9.752;2022-12-04T06:25:05;51.27;;;19.10;;
1545;SDS011;766;51.502;9.752;2022-12-04T06:27:34;47.00;;;18.17;;
1545;SDS011;766;51.502;9.752;2022-12-04T06:30:03;46.93;;;18.83;;
1545;SDS011;766;51.502;9.752;2022-12-04T06:32:32;51.30;;;19.30;;
1545;SDS011;766;51.502;9.752;2022-12-04T06:35:01;45.13;;;18.13;;
1545;SDS011;766;51.502;9.752;2022-12-04T06:37:30;45.57;;;17.87;;
1545;SDS011;766;51.502;9.752;2022-12-04T06:39:58;41.03;;;16.73;;
1545;SDS011;766;51.502;9.752;2022-12-04T06:42:28;47.20;;;18.43;;
1545;SDS011;766;51.502;9.752;2022-12-04T06:44:56;52.17;;;18.47;;
1545;SDS011;766;51.502;9.752;2022-12-04T06:47:26;44.53;;;16.93;;
1545;SDS011;766;51.502;9.752;2022-12-04T06:49:55;46.90;;;18.50;;
1545;SDS011;766;51.502;9.752;2022-12-04T06:52:24;46.43;;;17.90;;
1545;SDS011;766;51.502;9.752;2022-12-04T06:54:55;39.50;;;17.80;;
1545;SDS011;766;51.502;9.752;2022-12-04T06:57:25;48.53;;;19.23;;
1545;SDS011;766;51.502;9.752;2022-12-04T06:59:54;48.10;;;18.33;;
1545;SDS011;766;51.502;9.752;2022-12-04T07:02:23;50.93;;;19.17;;
1545;SDS011;766;51.502;9.752;2022-12-04T07:04:53;39.50;;;17.47;;
1545;SDS011;766;51.502;9.752;2022-12-04T07:07:23;48.87;;;18.60;;
1545;SDS011;766;51.502;9.752;2022-12-04T07:09:51;46.13;;;19.50;;
1545;SDS011;766;51.502;9.752;2022-12-04T07:12:20;47.07;;;18.63;;
1545;SDS011;766;51.502;9.752;2022-12-04T07:14:49;44.97;;;17.27;;
1545;SDS011;766;51.502;9.752;2022-12-04T07:17:19;36.57;;;16.83;;
1545;SDS011;766;51.502;9.752;2022-12-04T07:19:48;43.33;;;17.77;;
1545;SDS011;766;51.502;9.752;2022-12-04T07:22:16;43.67;;;17.70;;
1545;SDS011;766;51.502;9.752;2022-12-04T07:24:45;46.87;;;18.57;;
1545;SDS011;766;51.502;9.752;2022-12-04T07:27:13;40.97;;;17.23;;
1545;SDS011;766;51.502;9.752;2022-12-04T07:29:42;40.73;;;17.27;;
1545;SDS011;766;51.502;9.752;2022-12-04T07:32:10;46.93;;;18.67;;
1545;SDS011;766;51.502;9.752;2022-12-04T07:34:40;53.77;;;19.27;;
1545;SDS011;766;51.502;9.752;2022-12-04T07:37:08;45.00;;;17.90;;
1545;SDS011;766;51.502;9.752;2022-12-04T07:39:37;49.03;;;18.60;;
1545;SDS011;766;51.502;9.752;2022-12-04T07:42:07;43.83;;;18.37;;
1545;SDS011;766;51.502;9.752;2022-12-04T07:44:39;55.97;;;24.75;;
1545;SDS011;766;51.502;9.752;2022-12-04T07:47:08;50.60;;;19.60;;
1545;SDS011;766;51.502;9.752;2022-12-04T07:49:36;39.70;;;17.77;;
1545;SDS011;766;51.502;9.752;2022-12-04T07:52:07;44.33;;;18.47;;
1545;SDS011;766;51.502;9.752;2022-12-04T07:54:35;46.27;;;17.97;;
1545;SDS011;766;51.502;9.752;2022-12-04T07:57:03;45.90;;;17.40;;
1545;SDS011;766;51.502;9.752;2022-12-04T07:59:31;49.17;;;18.03;;
1545;SDS011;766;51.502;9.752;2022-12-04T08:02:00;46.67;;;18.87;;
1545;SDS011;766;51.502;9.752;2022-12-04T08:04:29;44.20;;;18.30;;
1545;SDS011;766;51.502;9.752;2022-12-04T08:06:57;43.23;;;18.13;;
1545;SDS011;766;51.502;9.752;2022-12-04T08:09:28;43.13;;;17.57;;
1545;SDS011;766;51.502;9.752;2022-12-04T08:11:56;44.90;;;17.47;;
1545;SDS011;766;51.502;9.752;2022-12-04T08:14:25;50.17;;;18.30;;
1545;SDS011;766;51.502;9.752;2022-12-04T08:16:54;44.97;;;17.07;;
1545;SDS011;766;51.502;9.752;2022-12-04T08:19:22;48.20;;;20.30;;
1545;SDS011;766;51.502;9.752;2022-12-04T08:21:52;40.93;;;18.73;;
1545;SDS011;766;51.502;9.752;2022-12-04T08:24:21;47.83;;;20.47;;
1545;SDS011;766;51.502;9.752;2022-12-04T08:26:53;45.40;;;17.37;;
1545;SDS011;766;51.502;9.752;2022-12-04T08:29:21;44.30;;;18.47;;
1545;SDS011;766;51.502;9.752;2022-12-04T08:31:51;43.87;;;18.57;;
1545;SDS011;766;51.502;9.752;2022-12-04T08:34:19;41.43;;;18.73;;
1545;SDS011;766;51.502;9.752;2022-12-04T08:36:50;45.27;;;19.10;;
1545;SDS011;766;51.502;9.752;2022-12-04T08:39:19;45.13;;;20.03;;
1545;SDS011;766;51.502;9.752;2022-12-04T08:41:48;39.97;;;18.73;;
1545;SDS011;766;51.502;9.752;2022-12-04T08:44:24;44.23;;;17.90;;
1545;SDS011;766;51.502;9.752;2022-12-04T08:46:53;48.33;;;19.80;;
1545;SDS011;766;51.502;9.752;2022-12-04T08:49:21;43.10;;;17.87;;
1545;SDS011;766;51.502;9.752;2022-12-04T08:51:50;40.03;;;18.07;;
1545;SDS011;766;51.502;9.752;2022-12-04T08:54:18;50.70;;;19.53;;
1545;SDS011;766;51.502;9.752;2022-12-04T08:56:47;44.27;;;18.30;;
1545;SDS011;766;51.502;9.752;2022-12-04T08:59:16;43.03;;;17.73;;
1545;SDS011;766;51.502;9.752;2022-12-04T09:01:48;44.07;;;18.60;;
1545;SDS011;766;51.502;9.752;2022-12-04T09:04:17;42.10;;;17.87;;
1545;SDS011;766;51.502;9.752;2022-12-04T09:06:46;40.33;;;17.97;;
1545;SDS011;766;51.502;9.752;2022-12-04T09:09:14;40.70;;;18.10;;
1545;SDS011;766;51.502;9.752;2022-12-04T09:11:43;47.40;;;19.00;;
1545;SDS011;766;51.502;9.752;2022-12-04T09:14:12;46.27;;;19.47;;
1545;SDS011;766;51.502;9.752;2022-12-04T09:16:40;46.23;;;19.70;;
1545;SDS011;766;51.502;9.752;2022-12-04T09:19:10;51.00;;;20.63;;
1545;SDS011;766;51.502;9.752;2022-12-04T09:22:24;45.47;;;18.43;;
1545;SDS011;766;51.502;9.752;2022-12-04T09:25:13;37.93;;;17.80;;
1545;SDS011;766;51.502;9.752;2022-12-04T09:27:42;50.63;;;19.80;;
1545;SDS011;766;51.502;9.752;2022-12-04T09:30:11;40.37;;;18.30;;
1545;SDS011;766;51.502;9.752;2022-12-04T09:32:40;48.17;;;19.97;;
1545;SDS011;766;51.502;9.752;2022-12-04T09:35:09;44.00;;;17.93;;
1545;SDS011;766;51.502;9.752;2022-12-04T09:37:38;43.53;;;18.23;;
1545;SDS011;766;51.502;9.752;2022-12-04T09:40:07;41.50;;;18.90;;
1545;SDS011;766;51.502;9.752;2022-12-04T09:42:47;46.57;;;20.20;;
1545;SDS011;766;51.502;9.752;2022-12-04T09:45:23;45.83;;;19.63;;
1545;SDS011;766;51.502;9.752;2022-12-04T09:47:53;48.20;;;19.50;;
1545;SDS011;766;51.502;9.752;2022-12-04T09:50:27;41.73;;;19.40;;
1545;SDS011;766;51.502;9.752;2022-12-04T09:53:03;37.53;;;17.73;;
1545;SDS011;766;51.502;9.752;2022-12-04T09:55:39;41.60;;;18.30;;
1545;SDS011;766;51.502;9.752;2022-12-04T09:58:11;37.70;;;17.57;;
1545;SDS011;766;51.502;9.752;2022-12-04T10:00:44;43.13;;;17.10;;
1545;SDS011;766;51.502;9.752;2022-12-04T10:03:16;36.47;;;16.23;;
1545;SDS011;766;51.502;9.752;2022-12-04T10:05:50;39.63;;;17.83;;
1545;SDS011;766;51.502;9.752;2022-12-04T10:08:22;47.67;;;19.97;;
1545;SDS011;766;51.502;9.752;2022-12-04T10:10:56;41.50;;;19.83;;
1545;SDS011;766;51.502;9.752;2022-12-04T10:13:39;40.93;;;17.97;;
1545;SDS011;766;51.502;9.752;2022-12-04T10:16:22;38.70;;;17.37;;
1545;SDS011;766;51.502;9.752;2022-12-04T10:18:56;38.90;;;17.47;;
1545;SDS011;766;51.502;9.752;2022-12-04T10:21:37;33.10;;;17.20;;
1545;SDS011;766;51.502;9.752;2022-12-04T10:24:20;40.70;;;19.30;;
1545;SDS011;766;51.502;9.752;2022-12-04T10:27:01;48.17;;;21.27;;
1545;SDS011;766;51.502;9.752;2022-12-04T10:29:36;38.17;;;17.63;;
1545;SDS011;766;51.502;9.752;2022-12-04T10:32:14;44.67;;;18.07;;
1545;SDS011;766;51.502;9.752;2022-12-04T10:34:47;37.87;;;18.50;;
1545;SDS011;766;51.502;9.752;2022-12-04T10:37:20;44.43;;;20.17;;
1545;SDS011;766;51.502;9.752;2022-12-04T10:39:50;34.30;;;16.00;;
1545;SDS011;766;51.502;9.752;2022-12-04T10:42:24;43.73;;;19.17;;
1545;SDS011;766;51.502;9.752;2022-12-04T10:44:57;37.53;;;17.53;;
1545;SDS011;766;51.502;9.752;2022-12-04T10:47:25;34.07;;;16.43;;
1545;SDS011;766;51.502;9.752;2022-12-04T10:49:56;36.80;;;18.40;;
1545;SDS011;766;51.502;9.752;2022-12-04T10:52:29;43.23;;;18.67;;
1545;SDS011;766;51.502;9.752;2022-12-04T10:54:58;39.93;;;18.13;;
1545;SDS011;766;51.502;9.752;2022-12-04T10:57:34;42.93;;;20.23;;
1545;SDS011;766;51.502;9.752;2022-12-04T11:00:22;42.93;;;20.10;;
1545;SDS011;766;51.502;9.752;2022-12-04T11:02:53;38.73;;;18.10;;
1545;SDS011;766;51.502;9.752;2022-12-04T11:05:24;43.70;;;18.83;;
1545;SDS011;766;51.502;9.752;2022-12-04T11:07:56;42.20;;;19.53;;
1545;SDS011;766;51.502;9.752;2022-12-04T11:10:29;46.73;;;19.80;;
1545;SDS011;766;51.502;9.752;2022-12-04T11:13:01;47.20;;;19.33;;
1545;SDS011;766;51.502;9.752;2022-12-04T11:15:33;41.57;;;19.80;;
1545;SDS011;766;51.502;9.752;2022-12-04T11:18:06;37.30;;;17.80;;
1545;SDS011;766;51.502;9.752;2022-12-04T11:20:36;41.50;;;18.23;;
1545;SDS011;766;51.502;9.752;2022-12-04T11:23:12;37.30;;;19.27;;
1545;SDS011;766;51.502;9.752;2022-12-04T11:25:44;41.70;;;19.47;;
1545;SDS011;766;51.502;9.752;2022-12-04T11:28:15;41.50;;;19.07;;
1545;SDS011;766;51.502;9.752;2022-12-04T11:31:06;43.97;;;19.07;;
1545;SDS011;766;51.502;9.752;2022-12-04T11:33:37;40.97;;;19.03;;
1545;SDS011;766;51.502;9.752;2022-12-04T11:36:15;37.30;;;18.97;;
1545;SDS011;766;51.502;9.752;2022-12-04T11:38:49;40.47;;;18.43;;
1545;SDS011;766;51.502;9.752;2022-12-04T11:41:24;37.27;;;18.27;;
1545;SDS011;766;51.502;9.752;2022-12-04T11:43:56;35.73;;;17.50;;
1545;SDS011;766;51.502;9.752;2022-12-04T11:46:27;36.53;;;16.97;;
1545;SDS011;766;51.502;9.752;2022-12-04T11:48:57;47.97;;;20.43;;
1545;SDS011;766;51.502;9.752;2022-12-04T11:51:33;45.87;;;19.87;;
1545;SDS011;766;51.502;9.752;2022-12-04T11:54:16;45.40;;;19.33;;
1545;SDS011;766;51.502;9.752;2022-12-04T11:56:54;45.13;;;19.70;;
1545;SDS011;766;51.502;9.752;2022-12-04T11:59:42;45.53;;;19.10;;
1545;SDS011;766;51.502;9.752;2022-12-04T12:02:29;40.20;;;17.43;;
1545;SDS011;766;51.502;9.752;2022-12-04T12:05:23;41.53;;;18.47;;
1545;SDS011;766;51.502;9.752;2022-12-04T12:08:08;44.73;;;18.80;;
1545;SDS011;766;51.502;9.752;2022-12-04T12:10:48;40.87;;;19.63;;
1545;SDS011;766;51.502;9.752;2022-12-04T12:13:24;42.40;;;19.00;;
1545;SDS011;766;51.502;9.752;2022-12-04T12:15:59;41.50;;;19.17;;
1545;SDS011;766;51.502;9.752;2022-12-04T12:18:54;47.47;;;21.07;;
1545;SDS011;766;51.502;9.752;2022-12-04T12:21:31;43.70;;;20.20;;
1545;SDS011;766;51.502;9.752;2022-12-04T12:24:08;45.93;;;21.67;;
1545;SDS011;766;51.502;9.752;2022-12-04T12:26:52;39.13;;;17.93;;
1545;SDS011;766;51.502;9.752;2022-12-04T12:29:32;44.47;;;20.73;;
1545;SDS011;766;51.502;9.752;2022-12-04T12:32:22;43.67;;;19.63;;
1545;SDS011;766;51.502;9.752;2022-12-04T12:35:11;44.03;;;20.20;;
1545;SDS011;766;51.502;9.752;2022-12-04T12:37:48;44.60;;;20.50;;
1545;SDS011;766;51.502;9.752;2022-12-04T12:40:24;43.67;;;21.13;;
1545;SDS011;766;51.502;9.752;2022-12-04T12:42:58;45.43;;;20.67;;
1545;SDS011;766;51.502;9.752;2022-12-04T12:45:33;41.87;;;20.03;;
1545;SDS011;766;51.502;9.752;2022-12-04T12:48:08;40.33;;;20.03;;
1545;SDS011;766;51.502;9.752;2022-12-04T12:50:47;35.77;;;17.73;;
1545;SDS011;766;51.502;9.752;2022-12-04T12:53:41;39.67;;;20.03;;
1545;SDS011;766;51.502;9.752;2022-12-04T12:56:15;44.90;;;19.93;;
1545;SDS011;766;51.502;9.752;2022-12-04T12:58:47;49.03;;;19.10;;
1545;SDS011;766;51.502;9.752;2022-12-04T13:01:21;40.67;;;19.73;;
1545;SDS011;766;51.502;9.752;2022-12-04T13:03:56;47.63;;;22.03;;
1545;SDS011;766;51.502;9.752;2022-12-04T13:06:30;39.77;;;19.07;;
1545;SDS011;766;51.502;9.752;2022-12-04T13:09:02;51.57;;;21.93;;
1545;SDS011;766;51.502;9.752;2022-12-04T13:11:35;47.23;;;20.17;;
1545;SDS011;766;51.502;9.752;2022-12-04T13:14:10;45.77;;;20.87;;
1545;SDS011;766;51.502;9.752;2022-12-04T13:16:40;37.40;;;19.03;;
1545;SDS011;766;51.502;9.752;2022-12-04T13:19:15;47.97;;;19.97;;
1545;SDS011;766;51.502;9.752;2022-12-04T13:21:48;46.43;;;20.10;;
1545;SDS011;766;51.502;9.752;2022-12-04T13:24:29;45.03;;;20.93;;
1545;SDS011;766;51.502;9.752;2022-12-04T13:27:21;43.07;;;20.00;;
1545;SDS011;766;51.502;9.752;2022-12-04T13:30:09;41.23;;;20.03;;
1545;SDS011;766;51.502;9.752;2022-12-04T13:32:56;51.13;;;20.70;;
1545;SDS011;766;51.502;9.752;2022-12-04T13:35:56;46.57;;;19.37;;
1545;SDS011;766;51.502;9.752;2022-12-04T13:38:45;42.70;;;20.73;;
1545;SDS011;766;51.502;9.752;2022-12-04T13:41:24;45.50;;;20.03;;
1545;SDS011;766;51.502;9.752;2022-12-04T13:43:54;42.10;;;19.37;;
1545;SDS011;766;51.502;9.752;2022-12-04T13:46:32;44.83;;;21.43;;
1545;SDS011;766;51.502;9.752;2022-12-04T13:49:06;53.57;;;23.43;;
1545;SDS011;766;51.502;9.752;2022-12-04T13:51:37;50.90;;;21.13;;
1545;SDS011;766;51.502;9.752;2022-12-04T13:54:18;42.53;;;20.90;;
1545;SDS011;766;51.502;9.752;2022-12-04T13:56:52;46.60;;;20.83;;
1545;SDS011;766;51.502;9.752;2022-12-04T13:59:32;49.27;;;21.40;;
1545;SDS011;766;51.502;9.752;2022-12-04T14:02:15;47.97;;;20.43;;
1545;SDS011;766;51.502;9.752;2022-12-04T14:04:55;48.43;;;21.53;;
1545;SDS011;766;51.502;9.752;2022-12-04T14:07:27;49.07;;;21.50;;
1545;SDS011;766;51.502;9.752;2022-12-04T14:09:58;44.73;;;20.80;;
1545;SDS011;766;51.502;9.752;2022-12-04T14:12:32;49.57;;;22.17;;
1545;SDS011;766;51.502;9.752;2022-12-04T14:15:03;48.67;;;21.10;;
1545;SDS011;766;51.502;9.752;2022-12-04T14:17:36;47.50;;;21.53;;
1545;SDS011;766;51.502;9.752;2022-12-04T14:20:06;55.27;;;22.17;;
1545;SDS011;766;51.502;9.752;2022-12-04T14:22:50;49.23;;;21.83;;
1545;SDS011;766;51.502;9.752;2022-12-04T14:25:24;67.37;;;25.87;;
1545;SDS011;766;51.502;9.752;2022-12-04T14:28:11;57.83;;;21.80;;
1545;SDS011;766;51.502;9.752;2022-12-04T14:30:57;51.07;;;22.33;;
1545;SDS011;766;51.502;9.752;2022-12-04T14:33:35;55.87;;;22.43;;
1545;SDS011;766;51.502;9.752;2022-12-04T14:36:09;57.20;;;23.57;;
1545;SDS011;766;51.502;9.752;2022-12-04T14:38:44;50.53;;;20.33;;
1545;SDS011;766;51.502;9.752;2022-12-04T14:41:22;50.73;;;21.23;;
1545;SDS011;766;51.502;9.752;2022-12-04T14:43:51;53.17;;;22.33;;
1545;SDS011;766;51.502;9.752;2022-12-04T14:46:22;42.97;;;20.40;;
1545;SDS011;766;51.502;9.752;2022-12-04T14:48:59;55.03;;;21.57;;
1545;SDS011;766;51.502;9.752;2022-12-04T14:51:40;50.73;;;20.33;;
1545;SDS011;766;51.502;9.752;2022-12-04T14:54:17;51.35;;;20.60;;
1545;SDS011;766;51.502;9.752;2022-12-04T14:56:55;50.17;;;20.83;;
1545;SDS011;766;51.502;9.752;2022-12-04T14:59:39;48.83;;;20.60;;
1545;SDS011;766;51.502;9.752;2022-12-04T15:02:11;44.75;;;21.23;;
1545;SDS011;766;51.502;9.752;2022-12-04T15:04:45;44.17;;;20.97;;
1545;SDS011;766;51.502;9.752;2022-12-04T15:07:18;46.90;;;22.07;;
1545;SDS011;766;51.502;9.752;2022-12-04T15:09:51;40.63;;;19.63;;
1545;SDS011;766;51.502;9.752;2022-12-04T15:12:39;46.53;;;20.27;;
1545;SDS011;766;51.502;9.752;2022-12-04T15:15:12;48.30;;;21.03;;
1545;SDS011;766;51.502;9.752;2022-12-04T15:17:54;46.10;;;20.73;;
1545;SDS011;766;51.502;9.752;2022-12-04T15:20:28;51.37;;;23.27;;
1545;SDS011;766;51.502;9.752;2022-12-04T15:23:04;47.03;;;22.13;;
1545;SDS011;766;51.502;9.752;2022-12-04T15:25:35;46.83;;;21.87;;
1545;SDS011;766;51.502;9.752;2022-12-04T15:28:11;53.03;;;22.37;;
1545;SDS011;766;51.502;9.752;2022-12-04T15:30:43;47.10;;;21.70;;
1545;SDS011;766;51.502;9.752;2022-12-04T15:33:14;51.70;;;22.73;;
1545;SDS011;766;51.502;9.752;2022-12-04T15:35:49;45.53;;;21.38;;
1545;SDS011;766;51.502;9.752;2022-12-04T15:38:20;43.53;;;19.90;;
1545;SDS011;766;51.502;9.752;2022-12-04T15:40:51;43.25;;;18.58;;
1545;SDS011;766;51.502;9.752;2022-12-04T15:43:28;43.27;;;20.10;;
1545;SDS011;766;51.502;9.752;2022-12-04T15:45:57;41.70;;;20.03;;
1545;SDS011;766;51.502;9.752;2022-12-04T15:48:26;40.77;;;19.10;;